CheckWX is a tool to help pilots better visualize weather data.  It is not intended as a substitute for an official pre-flight weather briefing.

12:28:44 UTC

KRHP METAR
Western Carolina Regional Airport
Andrews, North Carolina, USA
Current

29 mins ago

KRHP 241200Z AUTO 00000KT 7SM SCT003 20/20 A3003 RMK AO2 T02000200
Observed
Jun-24 @ 12:00 UTC
Visibility
7 SM
Flight Rules
VFR
Cloud Levels
  • Scattered at 300' AGL
Temperature
20°C / 68°F
Dewpoint
20°C / 68°F
Humidity
100%
Altimeter
30.03" Hg
Pressure
1016.92 hPa
Previous

49 mins ago

KRHP 241140Z AUTO 00000KT 7SM SCT003 19/19 A3003 RMK AO2 T01940194
Observed
Jun-24 @ 11:40 UTC
Visibility
7 SM
Flight Rules
VFR
Cloud Levels
  • Scattered at 300' AGL
Temperature
19°C / 66°F
Dewpoint
19°C / 66°F
Humidity
100%
Altimeter
30.03" Hg
Pressure
1016.92 hPa
Previous

1 hour ago

KRHP 241120Z AUTO 00000KT 4SM BR OVC003 19/19 A3003 RMK AO2 T01900190
Observed
Jun-24 @ 11:20 UTC
Visibility
4 SM
Flight Rules
LIFR
Conditions
Mist
Cloud Levels
  • Overcast at 300' AGL
Temperature
19°C / 66°F
Dewpoint
19°C / 66°F
Humidity
100%
Altimeter
30.03" Hg
Pressure
1016.92 hPa